createdAt,value
2023-05-25T00:01:04.768Z,18.98
2023-05-25T00:03:32.625Z,16.23
2023-05-25T00:06:03.910Z,15.70
2023-05-25T00:08:31.131Z,18.33
2023-05-25T00:10:58.662Z,16.65
2023-05-25T00:13:25.864Z,18.27
2023-05-25T00:15:52.969Z,13.23
2023-05-25T00:18:20.040Z,17.25
2023-05-25T00:20:47.673Z,27.92
2023-05-25T00:23:15.002Z,30.05
2023-05-25T00:25:42.588Z,26.98
2023-05-25T00:28:11.496Z,20.42
2023-05-25T00:30:39.055Z,16.50
2023-05-25T00:33:07.108Z,10.63
2023-05-25T00:35:34.192Z,12.30
2023-05-25T00:38:01.257Z,12.77
2023-05-25T00:40:28.353Z,16.42
2023-05-25T00:42:56.204Z,11.38
2023-05-25T00:45:23.626Z,16.23
2023-05-25T00:47:52.308Z,15.88
2023-05-25T00:50:33.503Z,14.60
2023-05-25T00:53:01.168Z,20.27
2023-05-25T00:55:31.539Z,13.20
2023-05-25T00:58:01.049Z,15.07
2023-05-25T01:00:30.583Z,17.85
2023-05-25T01:02:59.736Z,18.70
2023-05-25T01:05:30.808Z,17.25
2023-05-25T01:08:01.876Z,14.52
2023-05-25T01:10:32.736Z,24.02
2023-05-25T01:13:02.088Z,17.45
2023-05-25T01:15:30.977Z,16.80
2023-05-25T01:17:59.233Z,16.33
2023-05-25T01:20:35.679Z,16.02
2023-05-25T01:23:17.506Z,17.00
2023-05-25T01:25:51.456Z,12.65
2023-05-25T01:28:25.342Z,10.30
2023-05-25T01:30:53.706Z,15.23
2023-05-25T01:33:21.563Z,14.43
2023-05-25T01:35:49.072Z,17.90
2023-05-25T01:38:17.709Z,15.38
2023-05-25T01:40:44.794Z,17.70
2023-05-25T01:43:12.263Z,17.17
2023-05-25T01:45:39.324Z,15.73
2023-05-25T01:48:17.557Z,19.38
2023-05-25T01:50:57.994Z,20.40
2023-05-25T01:53:36.105Z,21.13
2023-05-25T01:56:11.442Z,22.85
2023-05-25T01:58:47.174Z,17.48
2023-05-25T02:01:17.006Z,18.73
2023-05-25T02:03:49.066Z,21.65
2023-05-25T02:06:16.742Z,20.85
2023-05-25T02:08:46.716Z,19.08
2023-05-25T02:11:17.217Z,23.98
2023-05-25T02:13:46.191Z,18.23
2023-05-25T02:16:13.361Z,17.85
2023-05-25T02:18:45.835Z,12.40
2023-05-25T02:21:13.068Z,18.10
2023-05-25T02:23:40.377Z,14.77
2023-05-25T02:26:07.565Z,13.60
2023-05-25T02:28:34.725Z,16.48
2023-05-25T02:31:01.974Z,16.55
2023-05-25T02:33:29.108Z,17.55
2023-05-25T02:35:57.754Z,16.25
2023-05-25T02:38:24.838Z,16.20
2023-05-25T02:40:51.921Z,20.35
2023-05-25T02:43:20.940Z,23.60
2023-05-25T02:45:48.016Z,23.70
2023-05-25T02:48:15.292Z,30.00
2023-05-25T02:50:42.454Z,18.70
2023-05-25T02:53:13.374Z,18.05
2023-05-25T02:55:40.528Z,21.48
2023-05-25T02:58:11.193Z,16.20
2023-05-25T03:00:56.781Z,18.77
2023-05-25T03:03:23.881Z,14.18
2023-05-25T03:05:51.568Z,13.90
2023-05-25T03:08:18.870Z,16.83
2023-05-25T03:10:46.030Z,13.88
2023-05-25T03:13:13.100Z,18.17
2023-05-25T03:15:40.360Z,14.55
2023-05-25T03:18:07.844Z,20.48
2023-05-25T03:20:38.198Z,19.25
2023-05-25T03:23:05.544Z,17.92
2023-05-25T03:25:34.121Z,20.25
2023-05-25T03:28:01.599Z,19.20
2023-05-25T03:30:29.659Z,20.05
2023-05-25T03:32:57.267Z,21.38
2023-05-25T03:35:28.472Z,17.60
2023-05-25T03:37:55.550Z,28.48
2023-05-25T03:40:22.795Z,13.95
2023-05-25T03:42:49.934Z,19.02
2023-05-25T03:45:17.124Z,16.75
2023-05-25T03:47:45.530Z,17.05
2023-05-25T03:50:13.025Z,13.23
2023-05-25T03:52:40.117Z,12.98
2023-05-25T03:55:07.424Z,12.80
2023-05-25T03:57:34.493Z,13.68
2023-05-25T04:00:01.906Z,13.23
2023-05-25T04:02:29.056Z,21.70
2023-05-25T04:04:57.117Z,23.17
2023-05-25T04:07:27.390Z,11.88
2023-05-25T04:09:54.470Z,16.38
2023-05-25T04:12:22.074Z,21.08
2023-05-25T04:14:49.157Z,18.00
2023-05-25T04:17:18.945Z,16.15
2023-05-25T04:19:46.406Z,14.75
2023-05-25T04:22:13.477Z,16.50
2023-05-25T04:24:41.338Z,16.05
2023-05-25T04:27:08.534Z,18.92
2023-05-25T04:29:37.127Z,18.48
2023-05-25T04:32:30.145Z,17.38
2023-05-25T04:35:15.843Z,19.80
2023-05-25T04:37:47.070Z,13.57
2023-05-25T04:40:14.640Z,15.82
2023-05-25T04:42:42.725Z,12.50
2023-05-25T04:45:10.507Z,16.35
2023-05-25T04:47:41.138Z,21.85
2023-05-25T04:50:10.934Z,15.48
2023-05-25T04:52:39.012Z,18.05
2023-05-25T04:55:06.607Z,17.17
2023-05-25T04:57:36.962Z,18.50
2023-05-25T05:00:05.944Z,19.67
2023-05-25T05:02:33.337Z,24.00
2023-05-25T05:05:00.470Z,18.23
2023-05-25T05:07:28.981Z,22.25
2023-05-25T05:09:56.302Z,17.27
2023-05-25T05:12:23.619Z,18.90
2023-05-25T05:14:53.073Z,18.65
2023-05-25T05:17:20.542Z,23.42
2023-05-25T05:19:47.894Z,18.60
2023-05-25T05:22:16.128Z,18.20
2023-05-25T05:24:45.511Z,20.63
2023-05-25T05:27:17.163Z,19.33
2023-05-25T05:29:47.930Z,20.20
2023-05-25T05:32:15.704Z,20.00
2023-05-25T05:34:42.860Z,22.98
2023-05-25T05:37:21.099Z,27.20
2023-05-25T05:39:48.188Z,23.65
2023-05-25T05:42:15.562Z,18.25
2023-05-25T05:44:42.690Z,22.77
2023-05-25T05:47:09.945Z,23.48
2023-05-25T05:49:39.238Z,20.10
2023-05-25T05:52:09.022Z,24.17
2023-05-25T05:54:36.606Z,27.25
2023-05-25T05:57:09.412Z,25.00
2023-05-25T05:59:36.594Z,21.63
2023-05-25T06:02:04.313Z,28.55
2023-05-25T06:04:31.567Z,21.42
2023-05-25T06:06:59.191Z,28.63
2023-05-25T06:09:26.574Z,33.95
2023-05-25T06:11:56.017Z,31.00
2023-05-25T06:14:23.153Z,41.97
2023-05-25T06:16:51.153Z,29.77
2023-05-25T06:19:18.575Z,44.97
2023-05-25T06:21:46.088Z,26.52
2023-05-25T06:24:15.211Z,28.08
2023-05-25T06:26:42.261Z,27.73
2023-05-25T06:29:09.325Z,35.92
2023-05-25T06:31:36.474Z,29.67
2023-05-25T06:34:03.662Z,41.00
2023-05-25T06:36:32.131Z,33.33
2023-05-25T06:38:59.857Z,40.25
2023-05-25T06:41:27.770Z,26.88
2023-05-25T06:43:56.458Z,27.00
2023-05-25T06:46:30.394Z,22.15
2023-05-25T06:49:00.530Z,36.08
2023-05-25T06:51:27.986Z,22.42
2023-05-25T06:53:55.710Z,31.10
2023-05-25T06:56:23.484Z,22.55
2023-05-25T06:58:51.025Z,26.02
2023-05-25T07:01:18.086Z,25.25
2023-05-25T07:03:45.503Z,25.35
2023-05-25T07:06:12.932Z,23.35
2023-05-25T07:08:39.989Z,20.63
2023-05-25T07:11:10.482Z,16.20
2023-05-25T07:13:37.557Z,19.77
2023-05-25T07:16:04.692Z,23.20
2023-05-25T07:18:31.750Z,16.65
2023-05-25T07:20:59.318Z,21.20
2023-05-25T07:23:26.379Z,17.17
2023-05-25T07:25:53.439Z,18.63
2023-05-25T07:28:20.461Z,15.02
2023-05-25T07:30:47.520Z,16.05
2023-05-25T07:33:14.602Z,27.23
2023-05-25T07:35:41.822Z,21.20
2023-05-25T07:38:09.157Z,17.35
2023-05-25T07:40:36.579Z,20.98
2023-05-25T07:43:04.479Z,21.73
2023-05-25T07:45:32.750Z,14.15
2023-05-25T07:47:59.805Z,18.65
2023-05-25T07:50:26.987Z,15.63
2023-05-25T07:52:54.018Z,10.55
2023-05-25T07:55:21.249Z,13.35
2023-05-25T07:57:48.381Z,12.80
2023-05-25T08:00:15.845Z,11.95
2023-05-25T08:02:44.127Z,38.63
2023-05-25T08:05:11.431Z,22.58
2023-05-25T08:07:40.053Z,19.13
2023-05-25T08:10:09.284Z,14.63
2023-05-25T08:12:47.865Z,10.07
2023-05-25T08:15:16.805Z,21.77
2023-05-25T08:17:44.514Z,10.55
2023-05-25T08:20:12.379Z,16.60
2023-05-25T08:22:39.700Z,12.50
2023-05-25T08:25:07.968Z,15.43
2023-05-25T08:27:39.188Z,12.90
2023-05-25T08:30:06.921Z,9.77
2023-05-25T08:32:34.261Z,9.88
2023-05-25T08:35:03.569Z,14.95
2023-05-25T08:37:32.288Z,11.68
2023-05-25T08:40:02.107Z,12.32
2023-05-25T08:42:29.632Z,17.17
2023-05-25T08:44:56.877Z,11.90
2023-05-25T08:47:24.257Z,9.88
2023-05-25T08:49:52.830Z,9.38
2023-05-25T08:52:22.937Z,8.27
2023-05-25T08:54:53.641Z,12.18
2023-05-25T08:57:27.403Z,10.40
2023-05-25T09:00:02.831Z,10.38
2023-05-25T09:02:45.103Z,8.43
2023-05-25T09:05:13.735Z,12.82
2023-05-25T09:07:43.020Z,11.70
2023-05-25T09:10:14.995Z,6.38
2023-05-25T09:12:42.843Z,12.13
2023-05-25T09:15:13.306Z,7.13
2023-05-25T09:17:41.317Z,7.38
2023-05-25T09:20:10.762Z,9.95
2023-05-25T09:22:38.362Z,5.43
2023-05-25T09:25:07.948Z,7.90
2023-05-25T09:27:37.319Z,12.35
2023-05-25T09:30:05.802Z,10.93
2023-05-25T09:32:33.075Z,10.23
2023-05-25T09:35:11.715Z,10.68
2023-05-25T09:37:40.765Z,13.48
2023-05-25T09:40:10.702Z,17.20
2023-05-25T09:42:38.549Z,11.65
2023-05-25T09:45:06.808Z,10.05
2023-05-25T09:47:36.628Z,7.88
2023-05-25T09:50:04.095Z,10.25
2023-05-25T09:52:31.419Z,8.52
2023-05-25T09:54:59.238Z,8.32
2023-05-25T09:57:27.177Z,11.02
2023-05-25T09:59:54.234Z,12.75
2023-05-25T10:02:21.696Z,7.25
2023-05-25T10:04:48.835Z,11.20
2023-05-25T10:07:17.254Z,10.88
2023-05-25T10:09:46.382Z,10.48
2023-05-25T10:12:19.295Z,7.60
2023-05-25T10:14:48.573Z,9.80
2023-05-25T10:17:22.827Z,14.70
2023-05-25T10:20:05.295Z,9.85
2023-05-25T10:22:36.756Z,8.35
2023-05-25T10:25:42.623Z,13.68
2023-05-25T10:28:12.604Z,10.55
2023-05-25T10:30:41.314Z,11.77
2023-05-25T10:33:08.753Z,10.43
2023-05-25T10:35:56.248Z,10.88
2023-05-25T10:38:26.805Z,14.05
2023-05-25T10:40:55.069Z,10.50
2023-05-25T10:43:23.503Z,10.93
2023-05-25T10:45:50.623Z,13.07
2023-05-25T10:48:17.807Z,9.98
2023-05-25T10:50:50.678Z,5.63
2023-05-25T10:53:24.020Z,7.63
2023-05-25T10:55:53.756Z,15.82
2023-05-25T10:58:22.884Z,6.10
2023-05-25T11:01:02.261Z,9.40
2023-05-25T11:03:44.888Z,5.82
2023-05-25T11:08:54.928Z,12.35
2023-05-25T11:11:42.776Z,8.45
2023-05-25T11:14:29.654Z,15.00
2023-05-25T11:17:16.420Z,14.20
2023-05-25T11:19:50.996Z,10.82
2023-05-25T11:22:21.155Z,9.27
2023-05-25T11:24:50.054Z,8.95
2023-05-25T11:27:24.830Z,12.48
2023-05-25T11:29:52.802Z,8.13
2023-05-25T11:32:21.290Z,10.00
2023-05-25T11:34:48.800Z,10.75
2023-05-25T11:37:17.253Z,12.93
2023-05-25T11:39:47.687Z,14.25
2023-05-25T11:42:15.188Z,9.07
2023-05-25T11:44:43.404Z,14.98
2023-05-25T11:47:14.331Z,9.15
2023-05-25T11:49:44.142Z,8.35
2023-05-25T11:52:13.002Z,8.82
2023-05-25T11:54:43.391Z,7.97
2023-05-25T11:57:27.341Z,8.73
2023-05-25T11:59:56.186Z,9.23
2023-05-25T12:02:24.258Z,10.88
2023-05-25T12:04:56.956Z,5.88
2023-05-25T12:07:26.083Z,7.18
2023-05-25T12:10:15.049Z,9.70
2023-05-25T12:12:42.980Z,11.07
2023-05-25T12:15:12.128Z,10.60
2023-05-25T12:17:44.082Z,9.73
2023-05-25T12:20:12.884Z,7.78
2023-05-25T12:22:40.709Z,8.00
2023-05-25T12:25:10.273Z,11.18
2023-05-25T12:27:38.120Z,7.25
2023-05-25T12:30:06.200Z,11.73
2023-05-25T12:32:33.421Z,12.25
2023-05-25T12:35:05.281Z,11.45
2023-05-25T12:37:33.290Z,16.95
2023-05-25T12:40:00.628Z,13.88
2023-05-25T12:42:27.839Z,13.43
2023-05-25T12:45:01.633Z,12.93
2023-05-25T12:47:30.241Z,12.40
2023-05-25T12:50:14.747Z,11.95
2023-05-25T12:52:44.191Z,13.43
2023-05-25T12:55:25.990Z,13.32
2023-05-25T12:57:54.711Z,9.50
2023-05-25T13:00:27.503Z,11.65
2023-05-25T13:02:54.888Z,13.75
2023-05-25T13:05:26.397Z,10.65
2023-05-25T13:07:56.386Z,15.63
2023-05-25T13:10:24.463Z,8.02
2023-05-25T13:12:53.491Z,10.77
2023-05-25T13:15:21.893Z,12.52
2023-05-25T13:17:50.746Z,11.70
2023-05-25T13:20:23.488Z,13.95
2023-05-25T13:22:52.378Z,13.00
2023-05-25T13:25:19.735Z,9.32
2023-05-25T13:27:49.474Z,11.20
2023-05-25T13:30:17.130Z,10.32
2023-05-25T13:32:44.550Z,9.43
2023-05-25T13:35:18.353Z,15.27
2023-05-25T13:37:46.263Z,9.88
2023-05-25T13:40:14.710Z,12.20
2023-05-25T13:42:41.823Z,12.10
2023-05-25T13:45:09.518Z,12.32
2023-05-25T13:47:36.895Z,12.10
2023-05-25T13:50:04.602Z,11.50
2023-05-25T13:52:31.690Z,10.93
2023-05-25T13:54:58.716Z,17.10
2023-05-25T13:57:25.930Z,16.95
2023-05-25T13:59:52.986Z,15.43
2023-05-25T14:02:20.127Z,16.10
2023-05-25T14:04:47.277Z,10.32
2023-05-25T14:07:14.319Z,12.68
2023-05-25T14:09:41.535Z,15.32
2023-05-25T14:12:08.681Z,12.73
2023-05-25T14:14:36.780Z,10.75
2023-05-25T14:17:03.994Z,10.63
2023-05-25T14:19:31.292Z,13.57
2023-05-25T14:24:28.415Z,15.15
2023-05-25T14:26:58.257Z,17.35
2023-05-25T14:29:25.438Z,12.55
2023-05-25T14:31:52.820Z,11.95
2023-05-25T14:34:20.058Z,13.30
2023-05-25T14:36:47.085Z,11.18
2023-05-25T14:39:16.464Z,19.98
2023-05-25T14:41:44.448Z,13.52
2023-05-25T14:44:11.565Z,16.33
2023-05-25T14:46:38.746Z,12.98
2023-05-25T14:49:05.809Z,9.63
2023-05-25T14:51:32.883Z,14.45
2023-05-25T14:54:03.354Z,10.18
2023-05-25T14:56:30.600Z,13.10
2023-05-25T14:58:57.643Z,11.60
2023-05-25T15:01:25.579Z,14.60
2023-05-25T15:03:53.028Z,13.73
2023-05-25T15:06:20.395Z,20.08
2023-05-25T15:08:47.443Z,21.02
2023-05-25T15:11:14.493Z,10.57
2023-05-25T15:13:41.599Z,10.75
2023-05-25T15:16:12.472Z,10.25
2023-05-25T15:18:39.642Z,9.30
2023-05-25T15:21:06.740Z,18.67
2023-05-25T15:23:33.851Z,12.65
2023-05-25T15:26:04.750Z,12.77
2023-05-25T15:28:31.918Z,14.20
2023-05-25T15:31:01.720Z,12.15
2023-05-25T15:33:49.539Z,11.52
2023-05-25T15:36:19.034Z,13.48
2023-05-25T15:38:49.076Z,11.48
2023-05-25T15:41:17.399Z,11.10
2023-05-25T15:43:54.240Z,13.43
2023-05-25T15:46:21.354Z,9.38
2023-05-25T15:48:48.414Z,11.00
2023-05-25T15:51:15.718Z,11.65
2023-05-25T15:53:42.822Z,12.50
2023-05-25T15:56:10.012Z,13.02
2023-05-25T15:58:37.036Z,12.15
2023-05-25T16:01:04.355Z,14.13
2023-05-25T16:03:31.721Z,8.40
2023-05-25T16:05:58.839Z,12.55
2023-05-25T16:08:25.865Z,11.52
2023-05-25T16:10:52.903Z,14.52
2023-05-25T16:13:19.971Z,13.05
2023-05-25T16:15:47.232Z,11.65
2023-05-25T16:18:14.613Z,8.88
2023-05-25T16:20:41.711Z,12.00
2023-05-25T16:23:08.785Z,10.52
2023-05-25T16:25:35.903Z,20.98
2023-05-25T16:28:03.068Z,14.80
2023-05-25T16:30:30.355Z,9.48
2023-05-25T16:32:57.439Z,12.20
2023-05-25T16:35:24.494Z,14.55
2023-05-25T16:37:51.533Z,13.55
2023-05-25T16:40:18.562Z,14.13
2023-05-25T16:42:45.748Z,12.43
2023-05-25T16:45:12.932Z,9.02
2023-05-25T16:47:40.002Z,11.48
2023-05-25T16:50:07.983Z,11.68
2023-05-25T16:52:35.640Z,10.60
2023-05-25T16:55:03.264Z,8.73
2023-05-25T16:57:30.530Z,10.70
2023-05-25T16:59:57.601Z,9.15
2023-05-25T17:02:24.997Z,8.95
2023-05-25T17:04:52.105Z,10.30
2023-05-25T17:07:19.177Z,13.18
2023-05-25T17:09:46.233Z,10.60
2023-05-25T17:12:13.296Z,18.05
2023-05-25T17:14:40.430Z,12.07
2023-05-25T17:17:07.528Z,10.75
2023-05-25T17:19:34.751Z,12.00
2023-05-25T17:22:01.786Z,11.77
2023-05-25T17:24:28.863Z,9.38
2023-05-25T17:26:56.039Z,15.85
2023-05-25T17:29:23.126Z,10.27
2023-05-25T17:31:50.388Z,12.90
2023-05-25T17:34:17.618Z,8.55
2023-05-25T17:36:44.809Z,13.57
2023-05-25T17:39:11.871Z,23.98
2023-05-25T17:41:38.968Z,11.48
2023-05-25T17:44:06.132Z,8.75
2023-05-25T17:46:33.185Z,12.93
2023-05-25T17:49:00.510Z,13.93
2023-05-25T17:51:27.577Z,9.77
2023-05-25T17:53:54.628Z,14.50
2023-05-25T17:56:22.190Z,16.50
2023-05-25T17:58:49.350Z,8.85
2023-05-25T18:01:16.827Z,11.98
2023-05-25T18:03:44.121Z,9.77
2023-05-25T18:06:11.259Z,17.52
2023-05-25T18:08:38.271Z,12.57
2023-05-25T18:11:05.641Z,15.68
2023-05-25T18:13:32.820Z,10.05
2023-05-25T18:15:59.929Z,13.82
2023-05-25T18:18:27.182Z,19.52
2023-05-25T18:20:54.255Z,11.65
2023-05-25T18:23:22.374Z,17.88
2023-05-25T18:25:49.547Z,11.70
2023-05-25T18:28:16.747Z,14.45
2023-05-25T18:30:43.910Z,10.15
2023-05-25T18:33:11.111Z,22.23
2023-05-25T18:35:38.680Z,13.15
2023-05-25T18:38:06.586Z,17.70
2023-05-25T18:40:33.698Z,21.52
2023-05-25T18:43:00.849Z,13.45
2023-05-25T18:45:27.910Z,15.43
2023-05-25T18:47:55.059Z,15.07
2023-05-25T18:50:22.137Z,12.05
2023-05-25T18:52:51.273Z,15.95
2023-05-25T18:55:18.999Z,15.02
2023-05-25T18:57:46.687Z,18.48
2023-05-25T19:00:14.412Z,19.55
2023-05-25T19:02:41.785Z,14.23
2023-05-25T19:05:11.466Z,12.38
2023-05-25T19:07:54.675Z,18.23
2023-05-25T19:10:25.350Z,20.67
2023-05-25T19:12:52.476Z,10.88
2023-05-25T19:15:19.601Z,18.65
2023-05-25T19:17:47.043Z,15.52
2023-05-25T19:20:14.505Z,21.15
2023-05-25T19:22:42.516Z,15.63
2023-05-25T19:25:09.745Z,18.02
2023-05-25T19:27:36.844Z,22.35
2023-05-25T19:30:04.613Z,17.80
2023-05-25T19:32:31.689Z,16.63
2023-05-25T19:34:58.798Z,17.83
2023-05-25T19:37:26.477Z,15.48
2023-05-25T19:39:53.533Z,18.95
2023-05-25T19:42:20.770Z,21.63
2023-05-25T19:44:47.803Z,16.05
2023-05-25T19:47:14.926Z,16.58
2023-05-25T19:49:42.745Z,22.73
2023-05-25T19:52:09.815Z,18.67
2023-05-25T19:54:38.583Z,18.10
2023-05-25T19:57:06.636Z,17.25
2023-05-25T19:59:33.816Z,20.88
2023-05-25T20:02:00.921Z,16.42
2023-05-25T20:04:28.005Z,16.88
2023-05-25T20:06:55.102Z,19.20
2023-05-25T20:09:30.465Z,23.50
2023-05-25T20:11:58.516Z,16.60
2023-05-25T20:14:26.276Z,20.90
2023-05-25T20:16:55.682Z,23.35
2023-05-25T20:19:25.534Z,20.25
2023-05-25T20:21:53.318Z,16.60
2023-05-25T20:24:21.879Z,17.15
2023-05-25T20:26:49.084Z,16.73
2023-05-25T20:29:16.120Z,21.13
2023-05-25T20:31:43.175Z,16.33
2023-05-25T20:34:10.235Z,17.52
2023-05-25T20:36:38.061Z,14.23
2023-05-25T20:39:05.504Z,16.77
2023-05-25T20:41:32.582Z,15.80
2023-05-25T20:43:59.677Z,23.10
2023-05-25T20:46:26.734Z,20.77
2023-05-25T20:48:54.112Z,25.08
2023-05-25T20:51:21.775Z,18.45
2023-05-25T20:53:48.905Z,22.08
2023-05-25T20:56:16.055Z,17.55
2023-05-25T20:58:43.365Z,15.57
2023-05-25T21:01:10.521Z,18.20
2023-05-25T21:03:37.833Z,15.60
2023-05-25T21:06:04.995Z,14.80
2023-05-25T21:08:33.235Z,17.73
2023-05-25T21:11:00.273Z,22.05
2023-05-25T21:13:27.457Z,15.32
2023-05-25T21:15:54.529Z,16.77
2023-05-25T21:18:21.618Z,19.70
2023-05-25T21:20:49.059Z,19.30
2023-05-25T21:23:16.230Z,21.90
2023-05-25T21:25:43.507Z,20.63
2023-05-25T21:28:10.963Z,13.75
2023-05-25T21:30:38.004Z,16.05
2023-05-25T21:33:13.447Z,19.42
2023-05-25T21:35:40.648Z,17.77
2023-05-25T21:38:08.694Z,16.58
2023-05-25T21:40:38.622Z,14.85
2023-05-25T21:43:06.483Z,16.45
2023-05-25T21:45:33.557Z,16.27
2023-05-25T21:48:00.673Z,18.92
2023-05-25T21:50:28.472Z,23.45
2023-05-25T21:52:55.534Z,15.15
2023-05-25T21:55:22.759Z,20.15
2023-05-25T21:57:49.770Z,19.20
2023-05-25T22:00:17.184Z,25.63
2023-05-25T22:02:44.383Z,17.55
2023-05-25T22:05:11.509Z,16.38
2023-05-25T22:07:38.615Z,18.05
2023-05-25T22:10:06.717Z,17.70
2023-05-25T22:12:33.751Z,17.20
2023-05-25T22:15:00.871Z,17.58
2023-05-25T22:17:28.001Z,20.77
2023-05-25T22:20:06.463Z,24.65
2023-05-25T22:22:34.977Z,17.50
2023-05-25T22:25:02.005Z,20.02
2023-05-25T22:27:29.082Z,17.45
2023-05-25T22:29:56.105Z,23.73
2023-05-25T22:32:23.411Z,18.33
2023-05-25T22:34:50.554Z,13.48
2023-05-25T22:37:17.746Z,17.52
2023-05-25T22:39:44.795Z,20.95
2023-05-25T22:42:11.978Z,19.73
2023-05-25T22:44:39.064Z,19.98
2023-05-25T22:47:06.522Z,22.98
2023-05-25T22:49:41.184Z,27.45
2023-05-25T22:52:11.322Z,20.90
2023-05-25T22:54:38.526Z,30.80
2023-05-25T22:57:06.328Z,31.75
2023-05-25T22:59:33.434Z,28.83
2023-05-25T23:02:00.688Z,39.25
2023-05-25T23:04:27.847Z,29.40
2023-05-25T23:06:54.909Z,26.27
2023-05-25T23:09:21.947Z,18.83
2023-05-25T23:11:49.073Z,21.88
2023-05-25T23:14:16.104Z,21.33
2023-05-25T23:16:44.305Z,17.55
2023-05-25T23:19:11.475Z,18.27
2023-05-25T23:21:38.548Z,16.58
2023-05-25T23:24:06.059Z,18.25
2023-05-25T23:26:33.117Z,18.48
2023-05-25T23:29:00.200Z,17.65
2023-05-25T23:31:27.412Z,24.48
2023-05-25T23:33:54.521Z,16.05
2023-05-25T23:36:21.608Z,17.75
2023-05-25T23:38:48.632Z,28.40
2023-05-25T23:41:16.483Z,37.10
2023-05-25T23:43:43.585Z,43.20
2023-05-25T23:46:10.719Z,55.10
2023-05-25T23:48:37.808Z,27.70
2023-05-25T23:51:07.381Z,24.42
2023-05-25T23:53:34.393Z,18.92
2023-05-25T23:56:01.458Z,20.73
2023-05-25T23:58:28.586Z,18.63
